sensor_id;sensor_type;location;lat;lon;timestamp;P1;durP1;ratioP1;P2;durP2;ratioP2
13891;SDS011;7016;48.172;8.058;2023-02-23T00:00:25;17.48;;;7.85;;
13891;SDS011;7016;48.172;8.058;2023-02-23T00:02:55;25.98;;;8.02;;
13891;SDS011;7016;48.172;8.058;2023-02-23T00:05:25;20.70;;;8.98;;
13891;SDS011;7016;48.172;8.058;2023-02-23T00:07:52;20.55;;;9.55;;
13891;SDS011;7016;48.172;8.058;2023-02-23T00:10:18;16.83;;;7.53;;
13891;SDS011;7016;48.172;8.058;2023-02-23T00:12:46;18.15;;;8.02;;
13891;SDS011;7016;48.172;8.058;2023-02-23T00:15:15;17.77;;;7.03;;
13891;SDS011;7016;48.172;8.058;2023-02-23T00:17:41;16.55;;;7.38;;
13891;SDS011;7016;48.172;8.058;2023-02-23T00:20:07;17.45;;;7.50;;
13891;SDS011;7016;48.172;8.058;2023-02-23T00:22:38;16.27;;;6.22;;
13891;SDS011;7016;48.172;8.058;2023-02-23T00:25:08;13.02;;;6.00;;
13891;SDS011;7016;48.172;8.058;2023-02-23T00:27:35;13.23;;;5.25;;
13891;SDS011;7016;48.172;8.058;2023-02-23T00:30:08;11.98;;;5.20;;
13891;SDS011;7016;48.172;8.058;2023-02-23T00:32:37;15.07;;;5.30;;
13891;SDS011;7016;48.172;8.058;2023-02-23T00:35:03;13.32;;;5.68;;
13891;SDS011;7016;48.172;8.058;2023-02-23T00:37:35;10.68;;;5.35;;
13891;SDS011;7016;48.172;8.058;2023-02-23T00:40:01;13.95;;;5.38;;
13891;SDS011;7016;48.172;8.058;2023-02-23T00:42:31;12.48;;;5.00;;
13891;SDS011;7016;48.172;8.058;2023-02-23T00:44:57;13.38;;;5.70;;
13891;SDS011;7016;48.172;8.058;2023-02-23T00:47:29;18.77;;;6.63;;
13891;SDS011;7016;48.172;8.058;2023-02-23T00:49:55;16.35;;;6.57;;
13891;SDS011;7016;48.172;8.058;2023-02-23T00:52:21;16.17;;;6.65;;
13891;SDS011;7016;48.172;8.058;2023-02-23T00:54:47;15.48;;;5.80;;
13891;SDS011;7016;48.172;8.058;2023-02-23T00:57:13;26.67;;;10.65;;
13891;SDS011;7016;48.172;8.058;2023-02-23T00:59:39;28.25;;;11.85;;
13891;SDS011;7016;48.172;8.058;2023-02-23T01:02:04;15.73;;;6.55;;
13891;SDS011;7016;48.172;8.058;2023-02-23T01:04:30;15.35;;;6.63;;
13891;SDS011;7016;48.172;8.058;2023-02-23T01:06:59;31.55;;;12.27;;
13891;SDS011;7016;48.172;8.058;2023-02-23T01:09:24;25.30;;;11.30;;
13891;SDS011;7016;48.172;8.058;2023-02-23T01:11:54;15.80;;;6.43;;
13891;SDS011;7016;48.172;8.058;2023-02-23T01:14:20;13.57;;;6.10;;
13891;SDS011;7016;48.172;8.058;2023-02-23T01:16:47;10.55;;;5.30;;
13891;SDS011;7016;48.172;8.058;2023-02-23T01:19:13;14.43;;;5.85;;
13891;SDS011;7016;48.172;8.058;2023-02-23T01:21:40;23.95;;;9.95;;
13891;SDS011;7016;48.172;8.058;2023-02-23T01:24:06;27.35;;;11.65;;
13891;SDS011;7016;48.172;8.058;2023-02-23T01:26:34;29.98;;;12.65;;
13891;SDS011;7016;48.172;8.058;2023-02-23T01:29:03;32.58;;;12.95;;
13891;SDS011;7016;48.172;8.058;2023-02-23T01:31:34;35.67;;;13.15;;
13891;SDS011;7016;48.172;8.058;2023-02-23T01:34:01;38.38;;;14.27;;
13891;SDS011;7016;48.172;8.058;2023-02-23T01:36:28;35.67;;;14.13;;
13891;SDS011;7016;48.172;8.058;2023-02-23T01:39:00;42.30;;;15.13;;
13891;SDS011;7016;48.172;8.058;2023-02-23T01:41:26;49.10;;;18.55;;
13891;SDS011;7016;48.172;8.058;2023-02-23T01:46:42;63.58;;;22.70;;
13891;SDS011;7016;48.172;8.058;2023-02-23T01:49:13;59.10;;;22.98;;
13891;SDS011;7016;48.172;8.058;2023-02-23T01:51:51;55.33;;;20.67;;
13891;SDS011;7016;48.172;8.058;2023-02-23T01:54:31;46.60;;;17.45;;
13891;SDS011;7016;48.172;8.058;2023-02-23T01:57:01;56.83;;;19.33;;
13891;SDS011;7016;48.172;8.058;2023-02-23T01:59:32;66.63;;;27.23;;
13891;SDS011;7016;48.172;8.058;2023-02-23T02:02:05;55.38;;;23.67;;
13891;SDS011;7016;48.172;8.058;2023-02-23T02:04:36;51.88;;;20.63;;
13891;SDS011;7016;48.172;8.058;2023-02-23T02:09:50;60.55;;;22.50;;
13891;SDS011;7016;48.172;8.058;2023-02-23T02:12:35;66.22;;;23.40;;
13891;SDS011;7016;48.172;8.058;2023-02-23T02:15:03;75.70;;;27.15;;
13891;SDS011;7016;48.172;8.058;2023-02-23T02:17:35;94.22;;;30.98;;
13891;SDS011;7016;48.172;8.058;2023-02-23T02:28:43;38.88;;;14.18;;
13891;SDS011;7016;48.172;8.058;2023-02-23T02:55:31;15.15;;;7.10;;
13891;SDS011;7016;48.172;8.058;2023-02-23T02:57:59;12.40;;;5.82;;
13891;SDS011;7016;48.172;8.058;2023-02-23T03:00:36;11.35;;;5.00;;
13891;SDS011;7016;48.172;8.058;2023-02-23T03:06:37;9.50;;;5.25;;
13891;SDS011;7016;48.172;8.058;2023-02-23T03:12:44;9.30;;;4.10;;
13891;SDS011;7016;48.172;8.058;2023-02-23T03:19:02;11.73;;;4.45;;
13891;SDS011;7016;48.172;8.058;2023-02-23T03:25:15;12.38;;;5.90;;
13891;SDS011;7016;48.172;8.058;2023-02-23T03:28:15;15.48;;;5.25;;
13891;SDS011;7016;48.172;8.058;2023-02-23T03:31:26;11.63;;;4.60;;
13891;SDS011;7016;48.172;8.058;2023-02-23T03:34:28;12.75;;;5.85;;
13891;SDS011;7016;48.172;8.058;2023-02-23T03:37:26;12.48;;;5.68;;
13891;SDS011;7016;48.172;8.058;2023-02-23T03:43:15;15.65;;;6.50;;
13891;SDS011;7016;48.172;8.058;2023-02-23T03:46:03;14.52;;;6.13;;
13891;SDS011;7016;48.172;8.058;2023-02-23T03:48:51;13.23;;;5.88;;
13891;SDS011;7016;48.172;8.058;2023-02-23T03:51:38;14.60;;;6.18;;
13891;SDS011;7016;48.172;8.058;2023-02-23T03:54:27;11.10;;;5.35;;
13891;SDS011;7016;48.172;8.058;2023-02-23T03:57:16;13.20;;;5.55;;
13891;SDS011;7016;48.172;8.058;2023-02-23T04:00:04;17.88;;;5.82;;
13891;SDS011;7016;48.172;8.058;2023-02-23T04:02:53;9.93;;;5.50;;
13891;SDS011;7016;48.172;8.058;2023-02-23T04:05:40;12.60;;;5.63;;
13891;SDS011;7016;48.172;8.058;2023-02-23T04:08:37;10.68;;;5.70;;
13891;SDS011;7016;48.172;8.058;2023-02-23T04:11:24;9.55;;;5.55;;
13891;SDS011;7016;48.172;8.058;2023-02-23T04:14:25;8.82;;;4.57;;
13891;SDS011;7016;48.172;8.058;2023-02-23T04:16:55;9.55;;;4.43;;
13891;SDS011;7016;48.172;8.058;2023-02-23T04:19:25;12.40;;;5.15;;
13891;SDS011;7016;48.172;8.058;2023-02-23T04:21:52;12.45;;;5.25;;
13891;SDS011;7016;48.172;8.058;2023-02-23T04:24:17;11.45;;;5.05;;
13891;SDS011;7016;48.172;8.058;2023-02-23T04:26:43;9.00;;;4.50;;
13891;SDS011;7016;48.172;8.058;2023-02-23T04:29:10;15.27;;;4.68;;
13891;SDS011;7016;48.172;8.058;2023-02-23T04:31:36;11.90;;;4.82;;
13891;SDS011;7016;48.172;8.058;2023-02-23T04:34:02;8.65;;;4.45;;
13891;SDS011;7016;48.172;8.058;2023-02-23T04:36:29;13.80;;;4.85;;
13891;SDS011;7016;48.172;8.058;2023-02-23T04:38:55;13.43;;;5.30;;
13891;SDS011;7016;48.172;8.058;2023-02-23T04:41:21;9.30;;;4.90;;
13891;SDS011;7016;48.172;8.058;2023-02-23T04:43:46;10.88;;;4.97;;
13891;SDS011;7016;48.172;8.058;2023-02-23T04:46:12;10.23;;;4.60;;
13891;SDS011;7016;48.172;8.058;2023-02-23T04:48:38;16.05;;;6.60;;
13891;SDS011;7016;48.172;8.058;2023-02-23T04:51:04;10.98;;;5.43;;
13891;SDS011;7016;48.172;8.058;2023-02-23T04:53:30;14.05;;;6.25;;
13891;SDS011;7016;48.172;8.058;2023-02-23T04:55:56;12.30;;;5.68;;
13891;SDS011;7016;48.172;8.058;2023-02-23T04:58:21;15.35;;;6.50;;
13891;SDS011;7016;48.172;8.058;2023-02-23T05:00:47;9.65;;;4.85;;
13891;SDS011;7016;48.172;8.058;2023-02-23T05:03:14;9.63;;;4.47;;
13891;SDS011;7016;48.172;8.058;2023-02-23T05:05:41;11.07;;;5.28;;
13891;SDS011;7016;48.172;8.058;2023-02-23T05:08:07;12.80;;;5.25;;
13891;SDS011;7016;48.172;8.058;2023-02-23T05:10:34;14.75;;;5.40;;
13891;SDS011;7016;48.172;8.058;2023-02-23T05:12:59;11.77;;;4.75;;
13891;SDS011;7016;48.172;8.058;2023-02-23T05:15:26;11.32;;;4.88;;
13891;SDS011;7016;48.172;8.058;2023-02-23T05:17:53;10.23;;;4.97;;
13891;SDS011;7016;48.172;8.058;2023-02-23T05:20:20;11.02;;;5.60;;
13891;SDS011;7016;48.172;8.058;2023-02-23T05:22:46;14.32;;;6.45;;
13891;SDS011;7016;48.172;8.058;2023-02-23T05:25:12;12.20;;;5.85;;
13891;SDS011;7016;48.172;8.058;2023-02-23T05:27:38;12.68;;;6.03;;
13891;SDS011;7016;48.172;8.058;2023-02-23T05:30:05;12.70;;;6.45;;
13891;SDS011;7016;48.172;8.058;2023-02-23T05:32:32;12.25;;;5.07;;
13891;SDS011;7016;48.172;8.058;2023-02-23T05:35:01;11.65;;;5.38;;
13891;SDS011;7016;48.172;8.058;2023-02-23T05:37:27;14.18;;;6.38;;
13891;SDS011;7016;48.172;8.058;2023-02-23T05:39:53;14.75;;;7.18;;
13891;SDS011;7016;48.172;8.058;2023-02-23T05:42:19;12.95;;;7.13;;
13891;SDS011;7016;48.172;8.058;2023-02-23T05:44:45;19.15;;;7.38;;
13891;SDS011;7016;48.172;8.058;2023-02-23T05:47:10;15.80;;;7.25;;
13891;SDS011;7016;48.172;8.058;2023-02-23T05:49:36;14.75;;;7.05;;
13891;SDS011;7016;48.172;8.058;2023-02-23T05:52:02;18.48;;;7.85;;
13891;SDS011;7016;48.172;8.058;2023-02-23T05:54:28;14.82;;;6.60;;
13891;SDS011;7016;48.172;8.058;2023-02-23T05:56:54;14.55;;;6.75;;
13891;SDS011;7016;48.172;8.058;2023-02-23T05:59:20;12.50;;;6.95;;
13891;SDS011;7016;48.172;8.058;2023-02-23T06:01:45;14.40;;;6.30;;
13891;SDS011;7016;48.172;8.058;2023-02-23T06:04:11;11.30;;;5.57;;
13891;SDS011;7016;48.172;8.058;2023-02-23T06:06:38;11.80;;;6.53;;
13891;SDS011;7016;48.172;8.058;2023-02-23T06:09:04;19.63;;;6.95;;
13891;SDS011;7016;48.172;8.058;2023-02-23T06:11:30;15.57;;;7.28;;
13891;SDS011;7016;48.172;8.058;2023-02-23T06:13:58;11.70;;;6.57;;
13891;SDS011;7016;48.172;8.058;2023-02-23T06:16:25;17.60;;;7.75;;
13891;SDS011;7016;48.172;8.058;2023-02-23T06:18:51;20.65;;;7.78;;
13891;SDS011;7016;48.172;8.058;2023-02-23T06:21:17;13.88;;;6.88;;
13891;SDS011;7016;48.172;8.058;2023-02-23T06:23:43;10.70;;;6.03;;
13891;SDS011;7016;48.172;8.058;2023-02-23T06:26:09;17.70;;;6.30;;
13891;SDS011;7016;48.172;8.058;2023-02-23T06:28:35;15.07;;;5.95;;
13891;SDS011;7016;48.172;8.058;2023-02-23T06:31:01;14.40;;;6.40;;
13891;SDS011;7016;48.172;8.058;2023-02-23T06:33:27;12.95;;;5.82;;
13891;SDS011;7016;48.172;8.058;2023-02-23T06:35:53;14.07;;;6.07;;
13891;SDS011;7016;48.172;8.058;2023-02-23T06:38:19;13.13;;;6.70;;
13891;SDS011;7016;48.172;8.058;2023-02-23T06:40:46;16.40;;;6.63;;
13891;SDS011;7016;48.172;8.058;2023-02-23T06:43:11;10.90;;;6.03;;
13891;SDS011;7016;48.172;8.058;2023-02-23T06:45:37;12.00;;;5.88;;
13891;SDS011;7016;48.172;8.058;2023-02-23T06:48:03;14.32;;;5.85;;
13891;SDS011;7016;48.172;8.058;2023-02-23T06:50:29;14.95;;;5.63;;
13891;SDS011;7016;48.172;8.058;2023-02-23T06:52:55;13.02;;;6.40;;
13891;SDS011;7016;48.172;8.058;2023-02-23T06:55:21;16.02;;;6.15;;
13891;SDS011;7016;48.172;8.058;2023-02-23T06:57:48;15.90;;;7.00;;
13891;SDS011;7016;48.172;8.058;2023-02-23T07:00:16;16.88;;;6.85;;
13891;SDS011;7016;48.172;8.058;2023-02-23T07:02:42;11.27;;;6.45;;
13891;SDS011;7016;48.172;8.058;2023-02-23T07:05:09;15.65;;;7.38;;
13891;SDS011;7016;48.172;8.058;2023-02-23T07:07:35;13.73;;;6.95;;
13891;SDS011;7016;48.172;8.058;2023-02-23T07:10:01;15.20;;;7.13;;
13891;SDS011;7016;48.172;8.058;2023-02-23T07:12:29;20.15;;;7.47;;
13891;SDS011;7016;48.172;8.058;2023-02-23T07:14:55;16.08;;;9.07;;
13891;SDS011;7016;48.172;8.058;2023-02-23T07:17:20;20.63;;;10.23;;
13891;SDS011;7016;48.172;8.058;2023-02-23T07:19:46;17.52;;;7.35;;
13891;SDS011;7016;48.172;8.058;2023-02-23T07:22:12;13.23;;;6.60;;
13891;SDS011;7016;48.172;8.058;2023-02-23T07:24:37;20.58;;;7.25;;
13891;SDS011;7016;48.172;8.058;2023-02-23T07:27:03;16.30;;;7.95;;
13891;SDS011;7016;48.172;8.058;2023-02-23T07:29:29;17.10;;;7.75;;
13891;SDS011;7016;48.172;8.058;2023-02-23T07:31:55;19.40;;;9.70;;
13891;SDS011;7016;48.172;8.058;2023-02-23T07:34:21;24.98;;;11.30;;
13891;SDS011;7016;48.172;8.058;2023-02-23T07:36:46;23.73;;;11.50;;
13891;SDS011;7016;48.172;8.058;2023-02-23T07:39:12;22.45;;;9.98;;
13891;SDS011;7016;48.172;8.058;2023-02-23T07:41:38;21.63;;;10.60;;
13891;SDS011;7016;48.172;8.058;2023-02-23T07:44:04;21.42;;;10.88;;
13891;SDS011;7016;48.172;8.058;2023-02-23T07:46:30;19.35;;;10.60;;
13891;SDS011;7016;48.172;8.058;2023-02-23T07:48:55;27.83;;;11.02;;
13891;SDS011;7016;48.172;8.058;2023-02-23T07:51:21;22.17;;;10.02;;
13891;SDS011;7016;48.172;8.058;2023-02-23T07:53:47;20.75;;;10.63;;
13891;SDS011;7016;48.172;8.058;2023-02-23T07:56:13;16.70;;;9.63;;
13891;SDS011;7016;48.172;8.058;2023-02-23T07:58:39;21.00;;;9.70;;
13891;SDS011;7016;48.172;8.058;2023-02-23T08:01:06;17.55;;;8.80;;
13891;SDS011;7016;48.172;8.058;2023-02-23T08:03:32;21.55;;;9.32;;
13891;SDS011;7016;48.172;8.058;2023-02-23T08:05:58;16.60;;;8.98;;
13891;SDS011;7016;48.172;8.058;2023-02-23T08:08:24;17.58;;;8.27;;
13891;SDS011;7016;48.172;8.058;2023-02-23T08:10:57;17.52;;;8.95;;
13891;SDS011;7016;48.172;8.058;2023-02-23T08:13:27;19.67;;;9.10;;
13891;SDS011;7016;48.172;8.058;2023-02-23T08:15:53;17.67;;;8.88;;
13891;SDS011;7016;48.172;8.058;2023-02-23T08:18:19;18.70;;;9.15;;
13891;SDS011;7016;48.172;8.058;2023-02-23T08:20:45;17.40;;;7.78;;
13891;SDS011;7016;48.172;8.058;2023-02-23T08:23:11;18.55;;;9.13;;
13891;SDS011;7016;48.172;8.058;2023-02-23T08:25:36;20.83;;;9.25;;
13891;SDS011;7016;48.172;8.058;2023-02-23T08:28:02;23.35;;;11.20;;
13891;SDS011;7016;48.172;8.058;2023-02-23T08:30:30;49.30;;;22.30;;
13891;SDS011;7016;48.172;8.058;2023-02-23T08:32:57;45.47;;;19.05;;
13891;SDS011;7016;48.172;8.058;2023-02-23T08:35:22;34.60;;;16.00;;
13891;SDS011;7016;48.172;8.058;2023-02-23T08:37:49;29.30;;;13.65;;
13891;SDS011;7016;48.172;8.058;2023-02-23T08:40:14;30.63;;;14.82;;
13891;SDS011;7016;48.172;8.058;2023-02-23T08:42:42;30.30;;;14.63;;
13891;SDS011;7016;48.172;8.058;2023-02-23T08:45:08;34.40;;;16.17;;
13891;SDS011;7016;48.172;8.058;2023-02-23T08:47:34;26.15;;;13.43;;
13891;SDS011;7016;48.172;8.058;2023-02-23T08:50:00;19.90;;;9.48;;
13891;SDS011;7016;48.172;8.058;2023-02-23T08:52:27;21.58;;;9.38;;
13891;SDS011;7016;48.172;8.058;2023-02-23T08:54:53;27.30;;;12.95;;
13891;SDS011;7016;48.172;8.058;2023-02-23T08:57:20;24.17;;;11.25;;
13891;SDS011;7016;48.172;8.058;2023-02-23T08:59:46;25.85;;;11.75;;
13891;SDS011;7016;48.172;8.058;2023-02-23T09:02:12;20.88;;;9.43;;
13891;SDS011;7016;48.172;8.058;2023-02-23T09:04:38;18.83;;;9.13;;
13891;SDS011;7016;48.172;8.058;2023-02-23T09:07:08;19.40;;;8.40;;
13891;SDS011;7016;48.172;8.058;2023-02-23T09:09:37;22.92;;;9.48;;
13891;SDS011;7016;48.172;8.058;2023-02-23T09:12:03;19.98;;;9.52;;
13891;SDS011;7016;48.172;8.058;2023-02-23T09:14:29;16.30;;;8.88;;
13891;SDS011;7016;48.172;8.058;2023-02-23T09:16:56;20.77;;;8.18;;
13891;SDS011;7016;48.172;8.058;2023-02-23T09:19:22;20.90;;;8.93;;
13891;SDS011;7016;48.172;8.058;2023-02-23T09:21:47;26.48;;;11.63;;
13891;SDS011;7016;48.172;8.058;2023-02-23T09:24:13;32.40;;;13.23;;
13891;SDS011;7016;48.172;8.058;2023-02-23T09:26:42;27.80;;;12.52;;
13891;SDS011;7016;48.172;8.058;2023-02-23T09:29:08;30.55;;;14.18;;
13891;SDS011;7016;48.172;8.058;2023-02-23T09:31:34;46.63;;;18.67;;
13891;SDS011;7016;48.172;8.058;2023-02-23T09:33:59;46.63;;;18.30;;
13891;SDS011;7016;48.172;8.058;2023-02-23T09:36:26;47.10;;;17.20;;
13891;SDS011;7016;48.172;8.058;2023-02-23T09:38:53;39.28;;;16.50;;
13891;SDS011;7016;48.172;8.058;2023-02-23T09:43:53;32.33;;;13.98;;
13891;SDS011;7016;48.172;8.058;2023-02-23T09:46:41;35.55;;;13.27;;
13891;SDS011;7016;48.172;8.058;2023-02-23T09:49:22;31.73;;;13.52;;
13891;SDS011;7016;48.172;8.058;2023-02-23T09:51:53;31.27;;;15.20;;
13891;SDS011;7016;48.172;8.058;2023-02-23T09:54:23;39.28;;;17.35;;
13891;SDS011;7016;48.172;8.058;2023-02-23T09:56:53;43.20;;;22.08;;
13891;SDS011;7016;48.172;8.058;2023-02-23T09:59:22;34.30;;;18.63;;
13891;SDS011;7016;48.172;8.058;2023-02-23T10:01:57;31.02;;;14.30;;
13891;SDS011;7016;48.172;8.058;2023-02-23T10:04:42;26.98;;;11.95;;
13891;SDS011;7016;48.172;8.058;2023-02-23T10:07:13;26.42;;;10.82;;
13891;SDS011;7016;48.172;8.058;2023-02-23T10:18:21;25.30;;;10.32;;
13891;SDS011;7016;48.172;8.058;2023-02-23T10:21:03;21.50;;;9.40;;
13891;SDS011;7016;48.172;8.058;2023-02-23T10:26:10;22.38;;;9.35;;
13891;SDS011;7016;48.172;8.058;2023-02-23T10:28:41;25.90;;;11.00;;
13891;SDS011;7016;48.172;8.058;2023-02-23T10:32:11;23.08;;;11.38;;
13891;SDS011;7016;48.172;8.058;2023-02-23T10:34:09;20.55;;;9.60;;
13891;SDS011;7016;48.172;8.058;2023-02-23T10:36:41;23.15;;;9.35;;
13891;SDS011;7016;48.172;8.058;2023-02-23T10:39:08;20.13;;;9.55;;
13891;SDS011;7016;48.172;8.058;2023-02-23T10:41:36;19.90;;;8.07;;
13891;SDS011;7016;48.172;8.058;2023-02-23T10:44:03;13.23;;;7.05;;
13891;SDS011;7016;48.172;8.058;2023-02-23T10:46:36;20.50;;;7.90;;
13891;SDS011;7016;48.172;8.058;2023-02-23T10:49:05;14.25;;;7.03;;
13891;SDS011;7016;48.172;8.058;2023-02-23T10:51:35;16.17;;;7.70;;
13891;SDS011;7016;48.172;8.058;2023-02-23T10:56:59;18.42;;;7.45;;
13891;SDS011;7016;48.172;8.058;2023-02-23T10:59:25;15.85;;;5.80;;
13891;SDS011;7016;48.172;8.058;2023-02-23T11:01:52;16.15;;;6.63;;
13891;SDS011;7016;48.172;8.058;2023-02-23T11:07:11;17.13;;;5.10;;
13891;SDS011;7016;48.172;8.058;2023-02-23T11:09:40;13.68;;;4.60;;
13891;SDS011;7016;48.172;8.058;2023-02-23T11:14:59;12.55;;;3.70;;
13891;SDS011;7016;48.172;8.058;2023-02-23T11:17:44;9.63;;;3.75;;
13891;SDS011;7016;48.172;8.058;2023-02-23T11:22:42;8.85;;;4.53;;
13891;SDS011;7016;48.172;8.058;2023-02-23T11:25:51;17.48;;;5.20;;
13891;SDS011;7016;48.172;8.058;2023-02-23T11:27:57;14.80;;;5.93;;
13891;SDS011;7016;48.172;8.058;2023-02-23T11:30:25;16.65;;;5.93;;
13891;SDS011;7016;48.172;8.058;2023-02-23T11:33:01;17.73;;;6.20;;
13891;SDS011;7016;48.172;8.058;2023-02-23T11:35:34;14.60;;;5.55;;
13891;SDS011;7016;48.172;8.058;2023-02-23T11:38:21;20.27;;;5.43;;
13891;SDS011;7016;48.172;8.058;2023-02-23T11:40:57;10.80;;;5.40;;
13891;SDS011;7016;48.172;8.058;2023-02-23T11:43:24;19.42;;;6.20;;
13891;SDS011;7016;48.172;8.058;2023-02-23T11:45:51;12.05;;;5.03;;
13891;SDS011;7016;48.172;8.058;2023-02-23T11:48:42;14.45;;;5.40;;
13891;SDS011;7016;48.172;8.058;2023-02-23T11:51:21;14.35;;;5.70;;
13891;SDS011;7016;48.172;8.058;2023-02-23T11:53:48;14.85;;;5.88;;
13891;SDS011;7016;48.172;8.058;2023-02-23T11:56:18;38.08;;;13.50;;
13891;SDS011;7016;48.172;8.058;2023-02-23T11:58:48;20.42;;;7.55;;
13891;SDS011;7016;48.172;8.058;2023-02-23T12:01:22;20.48;;;4.82;;
13891;SDS011;7016;48.172;8.058;2023-02-23T12:04:30;19.70;;;5.32;;
13891;SDS011;7016;48.172;8.058;2023-02-23T12:09:50;19.50;;;5.63;;
13891;SDS011;7016;48.172;8.058;2023-02-23T12:12:23;20.20;;;5.32;;
13891;SDS011;7016;48.172;8.058;2023-02-23T12:14:54;18.00;;;4.95;;
13891;SDS011;7016;48.172;8.058;2023-02-23T12:17:28;19.10;;;5.25;;
13891;SDS011;7016;48.172;8.058;2023-02-23T12:20:02;18.25;;;6.00;;
13891;SDS011;7016;48.172;8.058;2023-02-23T12:22:37;17.33;;;5.80;;
13891;SDS011;7016;48.172;8.058;2023-02-23T12:25:21;21.83;;;6.75;;
13891;SDS011;7016;48.172;8.058;2023-02-23T12:28:17;25.48;;;7.53;;
13891;SDS011;7016;48.172;8.058;2023-02-23T12:30:59;19.35;;;6.07;;
13891;SDS011;7016;48.172;8.058;2023-02-23T12:33:34;22.17;;;7.15;;
13891;SDS011;7016;48.172;8.058;2023-02-23T12:38:48;18.05;;;6.70;;
13891;SDS011;7016;48.172;8.058;2023-02-23T12:41:37;32.58;;;12.60;;
13891;SDS011;7016;48.172;8.058;2023-02-23T12:47:01;21.17;;;6.68;;
13891;SDS011;7016;48.172;8.058;2023-02-23T12:50:36;22.73;;;7.00;;
13891;SDS011;7016;48.172;8.058;2023-02-23T12:52:39;14.07;;;6.32;;
13891;SDS011;7016;48.172;8.058;2023-02-23T12:55:15;22.52;;;7.32;;
13891;SDS011;7016;48.172;8.058;2023-02-23T12:58:07;19.08;;;6.55;;
13891;SDS011;7016;48.172;8.058;2023-02-23T13:03:48;23.08;;;6.68;;
13891;SDS011;7016;48.172;8.058;2023-02-23T13:06:22;21.23;;;6.68;;
13891;SDS011;7016;48.172;8.058;2023-02-23T13:09:02;16.00;;;6.50;;
13891;SDS011;7016;48.172;8.058;2023-02-23T13:11:37;24.35;;;7.90;;
13891;SDS011;7016;48.172;8.058;2023-02-23T13:19:40;15.85;;;6.72;;
13891;SDS011;7016;48.172;8.058;2023-02-23T13:28:07;19.17;;;7.30;;
13891;SDS011;7016;48.172;8.058;2023-02-23T13:30:44;19.08;;;6.38;;
13891;SDS011;7016;48.172;8.058;2023-02-23T13:33:25;20.35;;;7.47;;
13891;SDS011;7016;48.172;8.058;2023-02-23T13:35:53;17.92;;;7.60;;
13891;SDS011;7016;48.172;8.058;2023-02-23T13:46:56;15.43;;;6.93;;
13891;SDS011;7016;48.172;8.058;2023-02-23T13:54:56;21.80;;;6.55;;
13891;SDS011;7016;48.172;8.058;2023-02-23T13:57:27;16.20;;;6.32;;
13891;SDS011;7016;48.172;8.058;2023-02-23T13:59:55;18.50;;;6.05;;
13891;SDS011;7016;48.172;8.058;2023-02-23T14:05:43;16.38;;;6.35;;
13891;SDS011;7016;48.172;8.058;2023-02-23T14:07:53;17.20;;;5.70;;
13891;SDS011;7016;48.172;8.058;2023-02-23T14:10:35;23.50;;;5.68;;
13891;SDS011;7016;48.172;8.058;2023-02-23T14:13:23;21.20;;;6.03;;
13891;SDS011;7016;48.172;8.058;2023-02-23T14:16:07;19.77;;;6.97;;
13891;SDS011;7016;48.172;8.058;2023-02-23T14:18:34;13.73;;;6.60;;
13891;SDS011;7016;48.172;8.058;2023-02-23T14:21:22;16.27;;;6.55;;
13891;SDS011;7016;48.172;8.058;2023-02-23T14:26:42;21.23;;;6.72;;
13891;SDS011;7016;48.172;8.058;2023-02-23T14:34:40;17.67;;;5.47;;
13891;SDS011;7016;48.172;8.058;2023-02-23T14:37:14;18.73;;;7.18;;
13891;SDS011;7016;48.172;8.058;2023-02-23T14:39:49;20.50;;;6.60;;
13891;SDS011;7016;48.172;8.058;2023-02-23T14:42:34;22.55;;;7.38;;
13891;SDS011;7016;48.172;8.058;2023-02-23T14:45:15;17.17;;;6.28;;
13891;SDS011;7016;48.172;8.058;2023-02-23T14:47:44;22.50;;;6.72;;
13891;SDS011;7016;48.172;8.058;2023-02-23T14:50:13;19.65;;;7.47;;
13891;SDS011;7016;48.172;8.058;2023-02-23T14:52:47;18.02;;;6.90;;
13891;SDS011;7016;48.172;8.058;2023-02-23T14:55:19;19.42;;;6.78;;
13891;SDS011;7016;48.172;8.058;2023-02-23T14:57:47;18.55;;;6.50;;
13891;SDS011;7016;48.172;8.058;2023-02-23T15:03:04;18.10;;;6.85;;
13891;SDS011;7016;48.172;8.058;2023-02-23T15:05:43;21.17;;;7.10;;
13891;SDS011;7016;48.172;8.058;2023-02-23T15:08:19;25.88;;;10.13;;
13891;SDS011;7016;48.172;8.058;2023-02-23T15:10:48;21.95;;;6.72;;
13891;SDS011;7016;48.172;8.058;2023-02-23T15:15:59;15.52;;;4.38;;
13891;SDS011;7016;48.172;8.058;2023-02-23T15:21:51;19.45;;;4.60;;
13891;SDS011;7016;48.172;8.058;2023-02-23T15:24:24;15.30;;;4.63;;
13891;SDS011;7016;48.172;8.058;2023-02-23T15:26:52;18.42;;;4.72;;
13891;SDS011;7016;48.172;8.058;2023-02-23T15:29:21;19.95;;;4.53;;
13891;SDS011;7016;48.172;8.058;2023-02-23T15:32:09;18.35;;;4.43;;
13891;SDS011;7016;48.172;8.058;2023-02-23T15:34:39;13.43;;;3.90;;
13891;SDS011;7016;48.172;8.058;2023-02-23T15:39:50;20.95;;;5.28;;
13891;SDS011;7016;48.172;8.058;2023-02-23T15:42:25;14.25;;;4.72;;
13891;SDS011;7016;48.172;8.058;2023-02-23T15:44:59;20.02;;;6.07;;
13891;SDS011;7016;48.172;8.058;2023-02-23T15:47:35;15.57;;;6.28;;
13891;SDS011;7016;48.172;8.058;2023-02-23T15:50:03;15.43;;;6.57;;
13891;SDS011;7016;48.172;8.058;2023-02-23T15:52:48;22.73;;;6.72;;
13891;SDS011;7016;48.172;8.058;2023-02-23T15:55:36;15.18;;;7.30;;
13891;SDS011;7016;48.172;8.058;2023-02-23T15:58:36;16.63;;;6.65;;
13891;SDS011;7016;48.172;8.058;2023-02-23T16:01:07;13.75;;;7.25;;
13891;SDS011;7016;48.172;8.058;2023-02-23T16:03:34;13.85;;;6.95;;
13891;SDS011;7016;48.172;8.058;2023-02-23T16:06:06;16.38;;;6.97;;
13891;SDS011;7016;48.172;8.058;2023-02-23T16:08:55;15.63;;;7.30;;
13891;SDS011;7016;48.172;8.058;2023-02-23T16:14:16;22.15;;;8.35;;
13891;SDS011;7016;48.172;8.058;2023-02-23T16:16:49;20.55;;;8.65;;
13891;SDS011;7016;48.172;8.058;2023-02-23T16:19:28;14.30;;;8.15;;
13891;SDS011;7016;48.172;8.058;2023-02-23T16:21:55;20.08;;;8.13;;
13891;SDS011;7016;48.172;8.058;2023-02-23T16:24:22;17.23;;;7.85;;
13891;SDS011;7016;48.172;8.058;2023-02-23T16:26:56;18.60;;;7.55;;
13891;SDS011;7016;48.172;8.058;2023-02-23T16:31:59;20.17;;;8.70;;
13891;SDS011;7016;48.172;8.058;2023-02-23T16:36:55;21.52;;;8.23;;
13891;SDS011;7016;48.172;8.058;2023-02-23T16:39:27;17.75;;;8.90;;
13891;SDS011;7016;48.172;8.058;2023-02-23T16:41:55;21.60;;;8.07;;
13891;SDS011;7016;48.172;8.058;2023-02-23T16:44:23;15.60;;;7.68;;
13891;SDS011;7016;48.172;8.058;2023-02-23T16:49:27;22.65;;;11.18;;
13891;SDS011;7016;48.172;8.058;2023-02-23T16:51:56;20.30;;;10.27;;
13891;SDS011;7016;48.172;8.058;2023-02-23T16:54:22;23.60;;;10.43;;
13891;SDS011;7016;48.172;8.058;2023-02-23T16:56:48;20.92;;;9.77;;
13891;SDS011;7016;48.172;8.058;2023-02-23T16:59:19;23.92;;;11.23;;
13891;SDS011;7016;48.172;8.058;2023-02-23T17:01:47;32.78;;;17.17;;
13891;SDS011;7016;48.172;8.058;2023-02-23T17:04:14;38.22;;;21.02;;
13891;SDS011;7016;48.172;8.058;2023-02-23T17:06:44;27.42;;;13.48;;
13891;SDS011;7016;48.172;8.058;2023-02-23T17:09:12;74.60;;;31.90;;
13891;SDS011;7016;48.172;8.058;2023-02-23T17:11:39;117.72;;;47.42;;
13891;SDS011;7016;48.172;8.058;2023-02-23T17:14:05;76.22;;;32.53;;
13891;SDS011;7016;48.172;8.058;2023-02-23T17:16:31;50.55;;;22.88;;
13891;SDS011;7016;48.172;8.058;2023-02-23T17:18:57;43.80;;;21.30;;
13891;SDS011;7016;48.172;8.058;2023-02-23T17:21:23;78.65;;;40.63;;
13891;SDS011;7016;48.172;8.058;2023-02-23T17:23:50;33.22;;;17.88;;
13891;SDS011;7016;48.172;8.058;2023-02-23T17:26:17;31.05;;;16.80;;
13891;SDS011;7016;48.172;8.058;2023-02-23T17:28:45;36.65;;;16.67;;
13891;SDS011;7016;48.172;8.058;2023-02-23T17:31:11;27.23;;;15.82;;
13891;SDS011;7016;48.172;8.058;2023-02-23T17:33:38;21.40;;;11.55;;
13891;SDS011;7016;48.172;8.058;2023-02-23T17:36:06;23.65;;;11.55;;
13891;SDS011;7016;48.172;8.058;2023-02-23T17:38:34;24.73;;;12.13;;